createdAt,value
2018-09-30T00:01:04.863Z,1.83
2018-09-30T00:03:35.338Z,1.33
2018-09-30T00:06:05.609Z,2.40
2018-09-30T00:08:36.405Z,1.53
2018-09-30T00:11:06.945Z,1.80
2018-09-30T00:13:37.780Z,1.63
2018-09-30T00:16:08.057Z,1.57
2018-09-30T00:18:42.225Z,2.10
2018-09-30T00:21:12.756Z,1.40
2018-09-30T00:23:48.260Z,1.80
2018-09-30T00:27:27.541Z,1.67
2018-09-30T00:29:58.081Z,1.93
2018-09-30T00:32:28.311Z,2.20
2018-09-30T00:34:58.904Z,1.87
2018-09-30T00:37:31.169Z,2.17
2018-09-30T00:40:02.376Z,1.50
2018-09-30T00:42:32.913Z,1.80
2018-09-30T00:45:03.673Z,2.43
2018-09-30T00:47:34.561Z,1.77
2018-09-30T00:50:05.113Z,2.33
2018-09-30T00:52:35.732Z,2.40
2018-09-30T00:55:06.293Z,2.50
2018-09-30T00:57:36.574Z,1.93
2018-09-30T01:00:08.581Z,2.10
2018-09-30T01:02:59.222Z,2.03
2018-09-30T01:05:31.454Z,1.97
2018-09-30T01:08:01.992Z,2.50
2018-09-30T01:10:32.797Z,2.00
2018-09-30T01:13:03.330Z,2.40
2018-09-30T01:15:34.213Z,1.90
2018-09-30T01:18:05.198Z,2.27
2018-09-30T01:20:35.701Z,2.50
2018-09-30T01:23:06.618Z,3.03
2018-09-30T01:25:37.368Z,2.10
2018-09-30T01:28:07.902Z,1.40
2018-09-30T01:30:39.203Z,2.47
2018-09-30T01:33:09.866Z,2.03
2018-09-30T01:35:42.109Z,1.97
2018-09-30T01:38:12.740Z,1.70
2018-09-30T01:40:43.348Z,1.50
2018-09-30T01:43:13.933Z,1.60
2018-09-30T01:45:44.484Z,2.53
2018-09-30T01:48:15.034Z,2.00
2018-09-30T01:50:45.791Z,2.50
2018-09-30T01:53:16.363Z,2.10
2018-09-30T01:55:47.238Z,1.97
2018-09-30T01:58:17.719Z,2.83
2018-09-30T02:00:48.223Z,2.03
2018-09-30T02:03:18.748Z,2.13
2018-09-30T02:05:49.245Z,2.37
2018-09-30T02:08:20.010Z,2.40
2018-09-30T02:10:50.231Z,2.40
2018-09-30T02:13:20.853Z,2.20
2018-09-30T02:15:52.578Z,2.37
2018-09-30T02:18:23.079Z,2.30
2018-09-30T02:20:53.558Z,2.30
2018-09-30T02:23:24.059Z,2.23
2018-09-30T02:25:54.709Z,2.63
2018-09-30T02:28:24.920Z,2.30
2018-09-30T02:30:56.461Z,2.20
2018-09-30T02:33:26.955Z,2.90
2018-09-30T02:35:57.744Z,2.30
2018-09-30T02:38:28.265Z,2.60
2018-09-30T02:40:59.047Z,2.07
2018-09-30T02:43:29.679Z,2.50
2018-09-30T02:46:00.171Z,2.30
2018-09-30T02:48:30.690Z,2.33
2018-09-30T02:51:01.202Z,2.87
2018-09-30T02:53:33.283Z,2.90
2018-09-30T02:56:03.860Z,2.00
2018-09-30T02:58:34.370Z,2.27
2018-09-30T03:01:04.895Z,2.40
2018-09-30T03:03:35.170Z,2.70
2018-09-30T03:06:10.248Z,2.40
2018-09-30T03:08:46.417Z,3.13
2018-09-30T03:11:16.841Z,3.40
2018-09-30T03:13:47.382Z,3.47
2018-09-30T03:16:18.126Z,2.90
2018-09-30T03:18:48.944Z,3.47
2018-09-30T03:21:19.497Z,3.00
2018-09-30T03:23:50.092Z,3.33
2018-09-30T03:26:21.908Z,3.93
2018-09-30T03:28:52.464Z,3.07
2018-09-30T03:31:23.365Z,3.13
2018-09-30T03:33:53.896Z,2.80
2018-09-30T03:36:24.661Z,3.10
2018-09-30T03:38:55.241Z,2.77
2018-09-30T03:41:25.958Z,3.20
2018-09-30T03:43:56.540Z,2.70
2018-09-30T03:46:27.321Z,2.70
2018-09-30T03:48:57.925Z,3.03
2018-09-30T03:51:28.453Z,3.07
2018-09-30T03:53:58.961Z,2.70
2018-09-30T03:56:29.700Z,3.20
2018-09-30T03:59:00.141Z,2.77
2018-09-30T04:01:30.409Z,2.40
2018-09-30T04:04:00.951Z,4.13
2018-09-30T04:06:31.185Z,3.30
2018-09-30T04:09:01.717Z,2.50
2018-09-30T04:11:31.999Z,3.33
2018-09-30T04:14:02.689Z,3.10
2018-09-30T04:16:33.213Z,2.80
2018-09-30T04:19:03.934Z,2.87
2018-09-30T04:21:34.462Z,3.20
2018-09-30T04:24:09.220Z,2.40
2018-09-30T04:26:40.735Z,3.53
2018-09-30T04:29:11.236Z,3.43
2018-09-30T04:31:41.987Z,3.30
2018-09-30T04:34:12.597Z,2.67
2018-09-30T04:36:42.863Z,2.17
2018-09-30T04:39:13.381Z,2.80
2018-09-30T04:41:44.522Z,2.60
2018-09-30T04:44:15.188Z,3.00
2018-09-30T04:46:46.564Z,3.03
2018-09-30T04:49:17.031Z,4.70
2018-09-30T04:51:47.364Z,3.40
2018-09-30T04:54:18.066Z,3.70
2018-09-30T04:56:48.694Z,4.27
2018-09-30T04:59:19.206Z,3.93
2018-09-30T05:01:49.492Z,2.80
2018-09-30T05:04:19.760Z,3.17
2018-09-30T05:06:50.411Z,3.90
2018-09-30T05:09:20.931Z,4.53
2018-09-30T05:11:52.364Z,4.00
2018-09-30T05:14:23.061Z,4.87
2018-09-30T05:16:53.336Z,4.53
2018-09-30T05:19:23.826Z,4.03
2018-09-30T05:21:54.520Z,3.07
2018-09-30T05:24:25.057Z,4.00
2018-09-30T05:26:55.741Z,3.77
2018-09-30T05:29:26.437Z,4.17
2018-09-30T05:31:57.260Z,2.87
2018-09-30T05:34:27.779Z,3.13
2018-09-30T05:36:58.008Z,3.57
2018-09-30T05:39:28.502Z,2.90
2018-09-30T05:41:59.048Z,3.60
2018-09-30T05:44:30.098Z,3.37
2018-09-30T05:47:00.652Z,3.33
2018-09-30T05:49:30.903Z,4.87
2018-09-30T05:52:01.854Z,2.97
2018-09-30T05:54:32.589Z,4.17
2018-09-30T05:57:02.900Z,3.30
2018-09-30T05:59:33.700Z,4.00
2018-09-30T06:02:04.369Z,3.60
2018-09-30T06:04:34.784Z,3.40
2018-09-30T06:07:05.312Z,3.40
2018-09-30T06:09:35.913Z,4.00
2018-09-30T06:12:06.617Z,3.27
2018-09-30T06:14:37.246Z,3.63
2018-09-30T06:17:07.907Z,4.00
2018-09-30T06:19:38.244Z,4.30
2018-09-30T06:22:08.754Z,3.33
2018-09-30T06:24:39.294Z,4.60
2018-09-30T06:27:09.839Z,4.73
2018-09-30T06:29:40.503Z,4.70
2018-09-30T06:32:11.156Z,4.33
2018-09-30T06:34:41.872Z,4.33
2018-09-30T06:37:12.286Z,4.50
2018-09-30T06:39:42.737Z,4.63
2018-09-30T06:42:13.385Z,7.00
2018-09-30T06:44:44.198Z,6.50
2018-09-30T06:47:14.818Z,5.17
2018-09-30T06:49:45.361Z,4.70
2018-09-30T06:52:16.179Z,5.27
2018-09-30T06:54:46.952Z,5.63
2018-09-30T06:57:17.303Z,11.60
2018-09-30T06:59:47.989Z,6.60
2018-09-30T07:02:19.278Z,5.83
2018-09-30T07:04:50.322Z,5.83
2018-09-30T07:07:21.076Z,6.33
2018-09-30T07:09:51.745Z,6.27
2018-09-30T07:12:22.484Z,5.00
2018-09-30T07:14:52.942Z,5.80
2018-09-30T07:17:38.774Z,5.97
2018-09-30T07:20:09.744Z,4.73
2018-09-30T07:22:41.187Z,5.43
2018-09-30T07:25:11.630Z,5.30
2018-09-30T07:27:42.111Z,3.57
2018-09-30T07:30:12.776Z,3.83
2018-09-30T07:32:43.112Z,3.53
2018-09-30T07:35:13.416Z,5.00
2018-09-30T07:37:44.347Z,3.53
2018-09-30T07:40:15.070Z,3.50
2018-09-30T07:42:45.756Z,3.33
2018-09-30T07:45:16.338Z,3.30
2018-09-30T07:47:46.956Z,3.20
2018-09-30T07:50:17.706Z,2.73
2018-09-30T07:52:48.770Z,2.27
2018-09-30T07:55:19.549Z,3.20
2018-09-30T07:57:50.685Z,2.63
2018-09-30T08:00:22.759Z,3.10
2018-09-30T08:02:53.933Z,3.20
2018-09-30T08:05:24.826Z,2.60
2018-09-30T08:07:57.138Z,3.23
2018-09-30T08:10:28.640Z,2.20
2018-09-30T08:12:59.366Z,2.53
2018-09-30T08:15:30.189Z,2.93
2018-09-30T08:18:01.391Z,2.47
2018-09-30T08:20:32.593Z,2.77
2018-09-30T08:23:03.247Z,2.87
2018-09-30T08:25:33.819Z,2.53
2018-09-30T08:28:04.713Z,3.20
2018-09-30T08:30:36.228Z,3.20
2018-09-30T08:33:07.023Z,2.73
2018-09-30T08:35:37.572Z,2.93
2018-09-30T08:38:13.126Z,4.00
2018-09-30T08:40:48.833Z,3.43
2018-09-30T08:43:19.331Z,3.87
2018-09-30T08:45:49.918Z,3.60
2018-09-30T08:48:20.704Z,2.93
2018-09-30T08:50:51.431Z,2.53
2018-09-30T08:53:22.169Z,4.50
2018-09-30T08:55:53.186Z,3.27
2018-09-30T08:58:24.981Z,3.20
2018-09-30T09:00:55.822Z,3.53
2018-09-30T09:03:27.316Z,3.47
2018-09-30T09:05:57.820Z,3.00
2018-09-30T09:08:28.317Z,3.50
2018-09-30T09:10:58.858Z,3.40
2018-09-30T09:13:29.362Z,3.00
2018-09-30T09:16:00.204Z,3.07
2018-09-30T09:18:30.585Z,3.03
2018-09-30T09:21:01.074Z,2.87
2018-09-30T09:23:31.353Z,2.80
2018-09-30T09:26:01.925Z,2.90
2018-09-30T09:28:32.432Z,3.10
2018-09-30T09:31:03.277Z,3.13
2018-09-30T09:33:33.789Z,2.73
2018-09-30T09:36:06.305Z,2.50
2018-09-30T09:38:36.609Z,2.83
2018-09-30T09:41:07.374Z,2.80
2018-09-30T09:43:37.902Z,3.03
2018-09-30T09:46:08.725Z,2.70
2018-09-30T09:48:39.843Z,3.40
2018-09-30T09:51:10.112Z,3.20
2018-09-30T09:53:40.968Z,2.97
2018-09-30T09:56:11.584Z,2.60
2018-09-30T09:58:42.313Z,2.80
2018-09-30T10:01:13.128Z,2.80
2018-09-30T10:03:43.657Z,2.97
2018-09-30T10:06:15.069Z,2.50
2018-09-30T10:08:45.572Z,2.63
2018-09-30T10:11:16.102Z,2.30
2018-09-30T10:13:46.693Z,2.63
2018-09-30T10:16:17.562Z,2.10
2018-09-30T10:18:47.801Z,2.60
2018-09-30T10:21:18.063Z,1.80
2018-09-30T10:23:48.852Z,2.17
2018-09-30T10:26:19.494Z,2.23
2018-09-30T10:28:49.766Z,2.30
2018-09-30T10:31:20.084Z,2.57
2018-09-30T10:33:50.992Z,2.10
2018-09-30T10:36:21.547Z,1.87
2018-09-30T10:38:51.873Z,2.13
2018-09-30T10:41:22.530Z,2.10
2018-09-30T10:43:53.066Z,2.43
2018-09-30T10:46:23.637Z,2.20
2018-09-30T10:48:54.262Z,1.93
2018-09-30T10:51:24.492Z,2.87
2018-09-30T10:53:55.056Z,2.60
2018-09-30T10:56:25.930Z,2.70
2018-09-30T10:58:56.901Z,3.10
2018-09-30T11:01:27.869Z,1.87
2018-09-30T11:03:58.087Z,2.37
2018-09-30T11:06:28.609Z,2.97
2018-09-30T11:08:59.195Z,2.20
2018-09-30T11:11:29.553Z,2.33
2018-09-30T11:14:00.454Z,2.40
2018-09-30T11:16:30.772Z,2.20
2018-09-30T11:19:01.401Z,2.40
2018-09-30T11:21:31.954Z,2.53
2018-09-30T11:24:03.416Z,2.90
2018-09-30T11:26:33.977Z,2.07
2018-09-30T11:29:04.604Z,2.83
2018-09-30T11:31:35.137Z,2.60
2018-09-30T11:34:05.626Z,2.10
2018-09-30T11:36:36.352Z,2.67
2018-09-30T11:39:09.865Z,2.80
2018-09-30T11:41:40.696Z,2.00
2018-09-30T11:44:11.305Z,2.30
2018-09-30T11:46:42.081Z,2.17
2018-09-30T11:49:12.645Z,3.57
2018-09-30T11:51:44.569Z,2.40
2018-09-30T11:54:15.136Z,2.27
2018-09-30T11:56:45.496Z,2.10
2018-09-30T11:59:16.350Z,2.70
2018-09-30T12:01:46.874Z,2.30
2018-09-30T12:04:17.674Z,1.53
2018-09-30T12:06:47.885Z,1.80
2018-09-30T12:09:18.408Z,2.40
2018-09-30T12:11:48.965Z,2.13
2018-09-30T12:14:19.790Z,2.33
2018-09-30T12:16:50.532Z,2.30
2018-09-30T12:19:21.123Z,1.90
2018-09-30T12:21:51.751Z,2.87
2018-09-30T12:24:22.260Z,2.10
2018-09-30T12:26:52.486Z,3.07
2018-09-30T12:29:22.768Z,2.10
2018-09-30T12:31:53.302Z,2.70
2018-09-30T12:34:23.845Z,3.80
2018-09-30T12:36:54.557Z,2.80
2018-09-30T12:39:25.446Z,2.40
2018-09-30T12:41:56.549Z,1.97
2018-09-30T12:44:27.340Z,2.37
2018-09-30T12:46:58.129Z,2.67
2018-09-30T12:49:28.760Z,2.03
2018-09-30T12:51:59.708Z,2.20
2018-09-30T12:54:30.151Z,1.67
2018-09-30T12:57:00.820Z,2.80
2018-09-30T12:59:31.525Z,2.97
2018-09-30T13:02:02.332Z,2.10
2018-09-30T13:04:32.601Z,2.40
2018-09-30T13:07:03.203Z,2.23
2018-09-30T13:09:33.795Z,2.57
2018-09-30T13:12:04.401Z,2.57
2018-09-30T13:14:35.866Z,2.50
2018-09-30T13:17:06.236Z,2.87
2018-09-30T13:19:36.804Z,2.17
2018-09-30T13:22:07.526Z,2.10
2018-09-30T13:24:39.152Z,1.63
2018-09-30T13:27:09.772Z,2.20
2018-09-30T13:29:40.442Z,2.97
2018-09-30T13:32:10.973Z,2.70
2018-09-30T13:34:41.322Z,2.40
2018-09-30T13:37:11.553Z,2.40
2018-09-30T13:39:42.108Z,1.90
2018-09-30T13:42:12.830Z,2.60
2018-09-30T13:44:43.537Z,2.50
2018-09-30T13:47:15.009Z,1.93
2018-09-30T13:49:45.749Z,2.23
2018-09-30T13:52:16.293Z,2.07
2018-09-30T13:54:47.202Z,2.77
2018-09-30T13:57:17.766Z,2.10
2018-09-30T13:59:48.323Z,2.10
2018-09-30T14:02:18.867Z,2.30
2018-09-30T14:04:49.280Z,2.10
2018-09-30T14:07:20.098Z,1.90
2018-09-30T14:09:50.359Z,2.27
2018-09-30T14:12:20.919Z,3.00
2018-09-30T14:14:51.476Z,2.17
2018-09-30T14:17:21.804Z,2.20
2018-09-30T14:19:52.310Z,2.67
2018-09-30T14:22:23.230Z,4.00
2018-09-30T14:24:53.748Z,3.87
2018-09-30T14:27:24.467Z,2.33
2018-09-30T14:29:55.494Z,2.43
2018-09-30T14:32:26.061Z,2.40
2018-09-30T14:34:56.749Z,2.10
2018-09-30T14:37:27.371Z,2.40
2018-09-30T14:39:57.896Z,3.00
2018-09-30T14:42:28.460Z,2.10
2018-09-30T14:44:59.039Z,2.73
2018-09-30T14:47:30.427Z,2.80
2018-09-30T14:50:00.681Z,2.60
2018-09-30T14:52:31.317Z,2.07
2018-09-30T14:55:01.843Z,2.77
2018-09-30T14:57:32.125Z,3.83
2018-09-30T15:00:02.669Z,2.73
2018-09-30T15:02:33.320Z,2.20
2018-09-30T15:05:04.131Z,2.00
2018-09-30T15:07:34.673Z,3.30
2018-09-30T15:10:05.237Z,2.90
2018-09-30T15:12:36.476Z,2.70
2018-09-30T15:15:08.279Z,1.87
2018-09-30T15:17:38.905Z,2.47
2018-09-30T15:20:09.558Z,2.30
2018-09-30T15:22:40.317Z,3.63
2018-09-30T15:25:10.618Z,3.57
2018-09-30T15:27:41.386Z,2.43
2018-09-30T15:30:11.958Z,2.40
2018-09-30T15:32:47.540Z,2.70
2018-09-30T15:35:17.864Z,2.80
2018-09-30T15:37:48.389Z,3.70
2018-09-30T15:40:19.037Z,2.50
2018-09-30T15:42:49.519Z,2.40
2018-09-30T15:45:19.933Z,2.60
2018-09-30T15:47:50.165Z,2.50
2018-09-30T15:50:20.713Z,2.57
2018-09-30T15:52:51.273Z,2.70
2018-09-30T15:55:22.112Z,2.40
2018-09-30T15:57:52.672Z,2.60
2018-09-30T16:00:23.470Z,3.60
2018-09-30T16:02:54.036Z,3.60
2018-09-30T16:05:24.537Z,2.60
2018-09-30T16:07:54.777Z,3.00
2018-09-30T16:10:25.348Z,3.50
2018-09-30T16:12:56.157Z,3.67
2018-09-30T16:15:26.875Z,2.67
2018-09-30T16:17:57.633Z,3.07
2018-09-30T16:20:27.954Z,3.20
2018-09-30T16:22:58.545Z,3.43
2018-09-30T16:25:29.090Z,2.30
2018-09-30T16:27:59.676Z,3.30
2018-09-30T16:30:29.917Z,6.23
2018-09-30T16:33:00.674Z,4.10
2018-09-30T16:35:30.906Z,2.63
2018-09-30T16:38:01.439Z,3.97
2018-09-30T16:40:31.683Z,4.70
2018-09-30T16:43:01.944Z,3.30
2018-09-30T16:45:32.704Z,2.90
2018-09-30T16:48:03.258Z,3.53
2018-09-30T16:50:34.091Z,4.17
2018-09-30T16:53:04.820Z,3.77
2018-09-30T16:55:35.335Z,3.33
2018-09-30T16:58:06.656Z,3.43
2018-09-30T17:00:37.402Z,3.00
2018-09-30T17:03:07.932Z,3.27
2018-09-30T17:05:38.740Z,3.00
2018-09-30T17:08:09.278Z,3.40
2018-09-30T17:10:39.585Z,3.27
2018-09-30T17:13:10.383Z,3.73
2018-09-30T17:15:40.646Z,3.83
2018-09-30T17:18:11.573Z,3.40
2018-09-30T17:20:41.960Z,3.47
2018-09-30T17:23:13.122Z,3.60
2018-09-30T17:25:47.897Z,3.60
2018-09-30T17:28:18.476Z,3.60
2018-09-30T17:30:49.568Z,3.33
2018-09-30T17:33:20.301Z,3.67
2018-09-30T17:35:50.849Z,3.20
2018-09-30T17:38:21.464Z,3.17
2018-09-30T17:40:52.200Z,3.17
2018-09-30T17:43:22.706Z,3.87
2018-09-30T17:45:53.430Z,3.30
2018-09-30T17:48:24.254Z,3.37
2018-09-30T17:50:55.276Z,3.27
2018-09-30T17:53:25.912Z,5.00
2018-09-30T17:55:56.271Z,4.20
2018-09-30T17:58:26.792Z,4.30
2018-09-30T18:00:57.321Z,3.77
2018-09-30T18:03:27.872Z,3.97
2018-09-30T18:05:58.177Z,4.20
2018-09-30T18:08:28.803Z,3.77
2018-09-30T18:10:59.641Z,3.87
2018-09-30T18:13:30.541Z,4.47
2018-09-30T18:16:01.052Z,9.00
2018-09-30T18:18:31.592Z,4.40
2018-09-30T18:21:02.298Z,4.57
2018-09-30T18:23:32.675Z,4.80
2018-09-30T18:26:03.360Z,5.67
2018-09-30T18:28:33.916Z,4.73
2018-09-30T18:31:04.433Z,3.80
2018-09-30T18:33:34.940Z,4.50
2018-09-30T18:36:05.578Z,4.33
2018-09-30T18:38:36.092Z,4.00
2018-09-30T18:41:07.097Z,5.33
2018-09-30T18:43:37.432Z,5.60
2018-09-30T18:46:08.074Z,6.07
2018-09-30T18:48:39.329Z,6.37
2018-09-30T18:51:09.574Z,6.10
2018-09-30T18:53:40.124Z,6.00
2018-09-30T18:56:11.126Z,7.23
2018-09-30T18:58:42.909Z,7.10
2018-09-30T19:01:13.652Z,7.80
2018-09-30T19:03:44.167Z,5.93
2018-09-30T19:06:14.680Z,4.20
2018-09-30T19:08:45.396Z,4.40
2018-09-30T19:11:15.685Z,3.50
2018-09-30T19:13:45.924Z,6.70
2018-09-30T19:16:16.604Z,4.30
2018-09-30T19:18:47.232Z,5.60
2018-09-30T19:21:17.787Z,3.87
2018-09-30T19:23:48.574Z,4.10
2018-09-30T19:26:19.142Z,3.73
2018-09-30T19:28:49.812Z,4.67
2018-09-30T19:31:20.388Z,4.23
2018-09-30T19:33:50.977Z,4.63
2018-09-30T19:36:21.656Z,4.10
2018-09-30T19:38:52.333Z,4.17
2018-09-30T19:41:22.880Z,4.70
2018-09-30T19:43:53.536Z,4.80
2018-09-30T19:46:24.965Z,4.77
2018-09-30T19:48:55.841Z,4.77
2018-09-30T19:51:26.445Z,4.97
2018-09-30T19:53:57.078Z,5.10
2018-09-30T19:56:27.875Z,5.20
2018-09-30T19:58:58.430Z,5.20
2018-09-30T20:01:29.276Z,5.13
2018-09-30T20:03:59.496Z,4.93
2018-09-30T20:06:29.905Z,5.27
2018-09-30T20:09:00.472Z,5.20
2018-09-30T20:11:31.181Z,4.50
2018-09-30T20:14:01.734Z,4.73
2018-09-30T20:16:32.261Z,13.47
2018-09-30T20:19:02.821Z,4.50
2018-09-30T20:21:33.064Z,4.67
2018-09-30T20:24:03.591Z,3.90
2018-09-30T20:26:34.141Z,4.50
2018-09-30T20:29:04.778Z,4.53
2018-09-30T20:31:35.461Z,4.70
2018-09-30T20:34:05.996Z,4.90
2018-09-30T20:36:36.276Z,4.47
2018-09-30T20:39:07.691Z,4.13
2018-09-30T20:41:38.382Z,4.27
2018-09-30T20:44:09.066Z,3.93
2018-09-30T20:46:39.352Z,4.20
2018-09-30T20:49:09.618Z,5.53
2018-09-30T20:51:40.364Z,4.60
2018-09-30T20:54:10.888Z,6.73
2018-09-30T20:56:42.155Z,4.13
2018-09-30T20:59:12.556Z,4.30
2018-09-30T21:01:43.351Z,4.63
2018-09-30T21:04:13.874Z,5.20
2018-09-30T21:06:45.280Z,5.20
2018-09-30T21:09:17.864Z,4.67
2018-09-30T21:11:48.544Z,4.50
2018-09-30T21:14:19.150Z,4.80
2018-09-30T21:16:49.901Z,4.20
2018-09-30T21:19:20.441Z,4.33
2018-09-30T21:21:50.690Z,4.87
2018-09-30T21:24:20.969Z,4.90
2018-09-30T21:26:51.280Z,4.00
2018-09-30T21:29:21.862Z,4.67
2018-09-30T21:31:52.192Z,4.37
2018-09-30T21:34:22.773Z,4.60
2018-09-30T21:36:53.552Z,4.80
2018-09-30T21:39:24.284Z,4.97
2018-09-30T21:41:54.879Z,4.40
2018-09-30T21:44:25.149Z,4.90
2018-09-30T21:46:55.670Z,5.00
2018-09-30T21:49:26.207Z,5.07
2018-09-30T21:51:56.834Z,4.70
2018-09-30T21:54:27.364Z,4.70
2018-09-30T21:56:58.757Z,5.23
2018-09-30T21:59:29.541Z,5.07
2018-09-30T22:02:00.088Z,4.33
2018-09-30T22:04:30.528Z,4.37
2018-09-30T22:07:01.453Z,6.00
2018-09-30T22:09:31.681Z,5.17
2018-09-30T22:12:02.468Z,5.30
2018-09-30T22:14:33.122Z,4.87
2018-09-30T22:17:03.671Z,4.83
2018-09-30T22:19:34.301Z,6.10
2018-09-30T22:22:04.861Z,4.90
2018-09-30T22:24:35.390Z,5.13
2018-09-30T22:27:06.271Z,4.70
2018-09-30T22:29:37.473Z,5.60
2018-09-30T22:32:07.839Z,5.40
2018-09-30T22:34:39.885Z,5.23
2018-09-30T22:37:10.541Z,4.47
2018-09-30T22:39:41.092Z,4.63
2018-09-30T22:42:11.666Z,4.63
2018-09-30T22:44:42.193Z,5.17
2018-09-30T22:47:12.749Z,4.77
2018-09-30T22:49:43.494Z,4.90
2018-09-30T22:52:14.910Z,4.57
2018-09-30T22:54:45.500Z,5.23
2018-09-30T22:57:16.043Z,4.50
2018-09-30T22:59:46.561Z,4.10
2018-09-30T23:02:17.132Z,5.60
2018-09-30T23:04:47.722Z,5.20
2018-09-30T23:07:17.950Z,4.50
2018-09-30T23:09:48.235Z,4.97
2018-09-30T23:12:18.627Z,4.13
2018-09-30T23:14:49.256Z,4.47
2018-09-30T23:17:19.821Z,5.30
2018-09-30T23:19:50.388Z,4.73
2018-09-30T23:22:22.768Z,6.33
2018-09-30T23:24:53.005Z,5.50
2018-09-30T23:27:23.508Z,5.03
2018-09-30T23:29:54.124Z,4.23
2018-09-30T23:32:24.669Z,5.57
2018-09-30T23:34:55.189Z,5.93
2018-09-30T23:37:26.037Z,6.27
2018-09-30T23:39:56.670Z,7.30
2018-09-30T23:42:27.262Z,5.70
2018-09-30T23:44:58.202Z,5.80
2018-09-30T23:47:28.752Z,5.10
2018-09-30T23:49:59.275Z,4.80
2018-09-30T23:52:29.912Z,4.60
2018-09-30T23:55:00.340Z,4.40
2018-09-30T23:57:30.869Z,5.10
